createdAt,value
2019-05-30T00:01:41.646Z,98534.53
2019-05-30T00:04:12.139Z,98532.42
2019-05-30T00:06:41.675Z,98530.76
2019-05-30T00:09:12.490Z,98535.09
2019-05-30T00:11:42.937Z,98540.55
2019-05-30T00:14:14.413Z,98537.99
2019-05-30T00:16:43.742Z,98533.10
2019-05-30T00:19:14.100Z,98534.58
2019-05-30T00:21:43.922Z,98539.19
2019-05-30T00:24:14.298Z,98543.91
2019-05-30T00:26:45.164Z,98538.80
2019-05-30T00:29:17.397Z,98541.08
2019-05-30T00:31:48.119Z,98539.84
2019-05-30T00:34:20.017Z,98544.77
2019-05-30T00:36:50.611Z,98549.34
2019-05-30T00:39:22.061Z,98549.59
2019-05-30T00:41:52.763Z,98546.88
2019-05-30T00:44:23.070Z,98543.09
2019-05-30T00:46:53.377Z,98544.34
2019-05-30T00:49:23.771Z,98543.38
2019-05-30T00:51:54.596Z,98538.47
2019-05-30T00:54:26.285Z,98533.36
2019-05-30T00:56:58.677Z,98544.27
2019-05-30T00:59:28.047Z,98536.16
2019-05-30T01:01:58.624Z,98538.55
2019-05-30T01:04:28.044Z,98541.25
2019-05-30T01:06:58.835Z,98540.95
2019-05-30T01:09:28.829Z,98540.88
2019-05-30T01:11:59.154Z,98546.11
2019-05-30T01:14:28.569Z,98548.05
2019-05-30T01:16:59.089Z,98544.58
2019-05-30T01:19:27.842Z,98551.25
2019-05-30T01:21:59.146Z,98549.94
2019-05-30T01:24:28.668Z,98552.70
2019-05-30T01:26:59.279Z,98546.39
2019-05-30T01:29:29.947Z,98550.38
2019-05-30T01:32:01.457Z,98546.23
2019-05-30T01:34:31.008Z,98546.19
2019-05-30T01:37:01.512Z,98539.69
2019-05-30T01:39:30.980Z,98548.38
2019-05-30T01:42:01.812Z,98549.92
2019-05-30T01:44:32.398Z,98546.12
2019-05-30T01:47:02.039Z,98549.77
2019-05-30T01:49:32.671Z,98548.95
2019-05-30T01:52:03.080Z,98551.70
2019-05-30T01:54:32.513Z,98544.58
2019-05-30T01:57:02.855Z,98548.07
2019-05-30T01:59:32.320Z,98551.39
2019-05-30T02:02:05.106Z,98552.05
2019-05-30T02:04:35.525Z,98556.75
2019-05-30T02:07:07.422Z,98551.14
2019-05-30T02:09:37.877Z,98550.09
2019-05-30T02:12:09.702Z,98548.72
2019-05-30T02:14:40.069Z,98550.75
2019-05-30T02:17:10.939Z,98553.25
2019-05-30T02:19:41.294Z,98553.87
2019-05-30T02:22:11.127Z,98557.16
2019-05-30T02:24:41.691Z,98556.27
2019-05-30T02:27:12.414Z,98556.14
2019-05-30T02:29:42.802Z,98561.98
2019-05-30T02:32:15.057Z,98560.84
2019-05-30T02:34:45.503Z,98562.88
2019-05-30T02:37:15.804Z,98564.48
2019-05-30T02:39:45.600Z,98558.16
2019-05-30T02:42:15.943Z,98569.73
2019-05-30T02:44:45.368Z,98577.02
2019-05-30T02:47:14.863Z,98577.61
2019-05-30T02:49:46.861Z,98582.78
2019-05-30T02:52:16.256Z,98582.30
2019-05-30T02:54:47.119Z,98585.84
2019-05-30T02:57:15.917Z,98588.42
2019-05-30T02:59:46.454Z,98591.18
2019-05-30T03:02:17.877Z,98583.89
2019-05-30T03:04:47.496Z,98588.09
2019-05-30T03:07:16.827Z,98585.09
2019-05-30T03:09:46.535Z,98586.13
2019-05-30T03:12:21.272Z,98596.02
2019-05-30T03:14:53.429Z,98594.69
2019-05-30T03:17:23.704Z,98596.89
2019-05-30T03:19:54.273Z,98596.66
2019-05-30T03:22:22.839Z,98592.53
2019-05-30T03:24:51.669Z,98601.20
2019-05-30T03:27:20.153Z,98593.37
2019-05-30T03:29:48.615Z,98598.87
2019-05-30T03:33:00.875Z,98599.76
2019-05-30T03:34:48.251Z,98601.48
2019-05-30T03:37:27.852Z,98609.19
2019-05-30T03:39:49.995Z,98610.23
2019-05-30T03:42:18.805Z,98618.84
2019-05-30T03:44:48.094Z,98616.04
2019-05-30T03:47:20.424Z,98619.56
2019-05-30T03:49:52.875Z,98614.58
2019-05-30T03:52:25.510Z,98619.30
2019-05-30T03:54:55.257Z,98621.03
2019-05-30T03:57:28.577Z,98614.87
2019-05-30T04:00:09.432Z,98615.91
2019-05-30T04:02:55.899Z,98625.17
2019-05-30T04:05:19.473Z,98619.34
2019-05-30T04:07:52.757Z,98624.53
2019-05-30T04:10:26.299Z,98627.51
2019-05-30T04:13:15.255Z,98630.67
2019-05-30T04:15:45.806Z,98621.37
2019-05-30T04:18:16.608Z,98632.49
2019-05-30T04:20:48.396Z,98639.16
2019-05-30T04:23:19.465Z,98638.16
2019-05-30T04:25:50.035Z,98649.48
2019-05-30T04:28:21.841Z,98652.19
2019-05-30T04:30:52.211Z,98653.97
2019-05-30T04:33:32.339Z,98659.05
2019-05-30T04:35:55.734Z,98649.78
2019-05-30T04:38:26.362Z,98653.20
2019-05-30T04:40:56.759Z,98655.91
2019-05-30T04:43:30.812Z,98667.27
2019-05-30T04:46:01.124Z,98656.28
2019-05-30T04:48:30.413Z,98656.70
2019-05-30T04:50:59.771Z,98664.94
2019-05-30T04:53:30.244Z,98663.27
2019-05-30T04:56:00.915Z,98658.94
2019-05-30T04:58:30.230Z,98649.52
2019-05-30T05:01:02.192Z,98657.75
2019-05-30T05:03:45.073Z,98657.45
2019-05-30T05:06:06.358Z,98654.91
2019-05-30T05:08:37.832Z,98655.82
2019-05-30T05:11:07.167Z,98658.70
2019-05-30T05:13:37.559Z,98657.88
2019-05-30T05:16:21.927Z,98657.73
2019-05-30T05:18:39.245Z,98654.22
2019-05-30T05:21:07.721Z,98657.44
2019-05-30T05:23:39.388Z,98660.19
2019-05-30T05:26:08.706Z,98654.60
2019-05-30T05:28:41.809Z,98650.64
2019-05-30T05:31:12.181Z,98653.92
2019-05-30T05:33:55.801Z,98660.51
2019-05-30T05:36:12.613Z,98648.69
2019-05-30T05:38:42.151Z,98656.85
2019-05-30T05:41:11.451Z,98640.20
2019-05-30T05:43:41.813Z,98648.31
2019-05-30T05:46:12.311Z,98654.91
2019-05-30T05:48:42.722Z,98648.92
2019-05-30T05:51:13.327Z,98651.81
2019-05-30T05:53:43.733Z,98652.70
2019-05-30T05:56:13.107Z,98654.14
2019-05-30T05:58:43.622Z,98655.14
2019-05-30T06:01:15.164Z,98660.52
2019-05-30T06:03:46.202Z,98658.77
2019-05-30T06:06:17.265Z,98653.44
2019-05-30T06:08:47.116Z,98654.52
2019-05-30T06:11:18.660Z,98648.70
2019-05-30T06:13:49.907Z,98651.39
2019-05-30T06:16:19.878Z,98651.69
2019-05-30T06:18:50.988Z,98658.30
2019-05-30T06:21:21.431Z,98656.38
2019-05-30T06:23:51.839Z,98651.92
2019-05-30T06:26:22.482Z,98659.50
2019-05-30T06:28:52.980Z,98645.87
2019-05-30T06:31:22.501Z,98651.47
2019-05-30T06:33:52.329Z,98650.00
2019-05-30T06:36:23.276Z,98646.42
2019-05-30T06:38:58.039Z,98653.41
2019-05-30T06:41:27.719Z,98649.53
2019-05-30T06:43:58.739Z,98654.47
2019-05-30T06:46:30.467Z,98658.61
2019-05-30T06:49:03.027Z,98655.16
2019-05-30T06:51:32.088Z,98655.18
2019-05-30T06:54:02.503Z,98652.81
2019-05-30T06:56:32.959Z,98658.39
2019-05-30T06:59:02.364Z,98650.56
2019-05-30T07:01:33.067Z,98648.58
2019-05-30T07:04:04.499Z,98646.75
2019-05-30T07:06:35.714Z,98641.91
2019-05-30T07:09:12.506Z,98645.41
2019-05-30T07:11:43.019Z,98645.30
2019-05-30T07:14:13.317Z,98647.36
2019-05-30T07:16:42.734Z,98648.97
2019-05-30T07:19:13.093Z,98647.47
2019-05-30T07:21:43.606Z,98648.03
2019-05-30T07:24:14.117Z,98658.23
2019-05-30T07:26:43.621Z,98650.42
2019-05-30T07:29:14.314Z,98645.81
2019-05-30T07:31:45.009Z,98654.64
2019-05-30T07:34:16.547Z,98657.61
2019-05-30T07:36:48.950Z,98660.37
2019-05-30T07:39:19.376Z,98654.44
2019-05-30T07:42:05.190Z,98662.05
2019-05-30T07:44:24.803Z,98659.86
2019-05-30T07:46:56.632Z,98668.28
2019-05-30T07:49:28.250Z,98662.02
2019-05-30T07:51:57.836Z,98658.55
2019-05-30T07:54:26.902Z,98659.00
2019-05-30T07:56:58.764Z,98660.92
2019-05-30T07:59:30.726Z,98662.25
2019-05-30T08:02:00.011Z,98654.77
2019-05-30T08:04:34.233Z,98655.02
2019-05-30T08:07:06.357Z,98664.44
2019-05-30T08:09:39.303Z,98654.08
2019-05-30T08:12:08.981Z,98654.79
2019-05-30T08:14:41.851Z,98646.83
2019-05-30T08:17:15.911Z,98648.08
2019-05-30T08:19:48.930Z,98650.63
2019-05-30T08:22:21.637Z,98649.41
2019-05-30T08:24:52.159Z,98642.30
2019-05-30T08:27:21.440Z,98644.88
2019-05-30T08:29:52.119Z,98649.10
2019-05-30T08:32:22.634Z,98639.06
2019-05-30T08:34:52.093Z,98635.34
2019-05-30T08:37:23.240Z,98637.66
2019-05-30T08:39:53.695Z,98637.99
2019-05-30T08:42:22.524Z,98637.63
2019-05-30T08:44:52.994Z,98633.59
2019-05-30T08:47:24.883Z,98633.80
2019-05-30T08:49:55.997Z,98632.16
2019-05-30T08:52:26.498Z,98627.34
2019-05-30T08:54:56.921Z,98625.48
2019-05-30T08:57:26.312Z,98626.72
2019-05-30T08:59:56.622Z,98626.19
2019-05-30T09:02:29.165Z,98623.30
2019-05-30T09:04:58.676Z,98621.82
2019-05-30T09:07:31.754Z,98615.34
2019-05-30T09:10:02.366Z,98609.16
2019-05-30T09:12:33.420Z,98611.03
2019-05-30T09:15:04.222Z,98602.70
2019-05-30T09:17:33.631Z,98608.77
2019-05-30T09:20:03.422Z,98605.42
2019-05-30T09:22:35.665Z,98599.53
2019-05-30T09:25:10.882Z,98602.78
2019-05-30T09:27:41.438Z,98594.95
2019-05-30T09:30:14.040Z,98602.87
2019-05-30T09:32:45.224Z,98597.70
2019-05-30T09:35:16.358Z,98600.72
2019-05-30T09:37:47.608Z,98593.47
2019-05-30T09:40:22.381Z,98595.86
2019-05-30T09:42:53.728Z,98594.92
2019-05-30T09:45:23.918Z,98595.47
2019-05-30T09:47:54.451Z,98591.51
2019-05-30T09:50:25.045Z,98582.07
2019-05-30T09:52:55.528Z,98588.97
2019-05-30T09:55:27.570Z,98586.89
2019-05-30T09:57:58.247Z,98591.28
2019-05-30T10:00:31.693Z,98592.39
2019-05-30T10:03:00.417Z,98594.53
2019-05-30T10:05:30.937Z,98601.95
2019-05-30T10:08:03.318Z,98595.34
2019-05-30T10:10:36.355Z,98598.35
2019-05-30T10:13:06.117Z,98594.12
2019-05-30T10:15:36.850Z,98601.09
2019-05-30T10:18:19.154Z,98600.38
2019-05-30T10:21:00.731Z,98603.92
2019-05-30T10:23:35.684Z,98599.48
2019-05-30T10:26:07.202Z,98597.34
2019-05-30T10:28:37.371Z,98595.46
2019-05-30T10:31:07.517Z,98594.38
2019-05-30T10:33:36.855Z,98587.05
2019-05-30T10:36:09.542Z,98585.70
2019-05-30T10:38:42.558Z,98576.22
2019-05-30T10:41:20.986Z,98577.37
2019-05-30T10:43:51.734Z,98582.13
2019-05-30T10:46:23.761Z,98579.80
2019-05-30T10:48:56.737Z,98580.33
2019-05-30T10:51:26.324Z,98577.19
2019-05-30T10:53:58.793Z,98575.08
2019-05-30T10:56:30.448Z,98575.98
2019-05-30T10:59:00.943Z,98578.54
2019-05-30T11:01:34.418Z,98569.09
2019-05-30T11:04:04.152Z,98574.89
2019-05-30T11:07:10.155Z,98570.73
2019-05-30T11:09:27.181Z,98572.12
2019-05-30T11:11:57.508Z,98572.89
2019-05-30T11:14:26.808Z,98562.70
2019-05-30T11:16:58.896Z,98563.92
2019-05-30T11:19:28.249Z,98564.41
2019-05-30T11:21:58.178Z,98559.83
2019-05-30T11:24:30.500Z,98557.61
2019-05-30T11:27:00.057Z,98557.92
2019-05-30T11:29:30.998Z,98549.88
2019-05-30T11:32:01.399Z,98551.65
2019-05-30T11:34:30.867Z,98542.74
2019-05-30T11:37:18.096Z,98539.99
2019-05-30T11:39:33.703Z,98540.45
2019-05-30T11:42:04.153Z,98530.58
2019-05-30T11:44:33.525Z,98535.77
2019-05-30T11:47:03.037Z,98530.13
2019-05-30T11:49:33.384Z,98524.28
2019-05-30T11:52:02.902Z,98522.09
2019-05-30T11:54:32.512Z,98523.55
2019-05-30T11:57:03.409Z,98527.08
2019-05-30T11:59:35.577Z,98526.11
2019-05-30T12:02:04.938Z,98518.12
2019-05-30T12:04:40.741Z,98520.68
2019-05-30T12:07:13.015Z,98513.35
2019-05-30T12:09:43.520Z,98517.80
2019-05-30T12:12:15.399Z,98512.95
2019-05-30T12:14:45.907Z,98519.09
2019-05-30T12:17:17.275Z,98511.78
2019-05-30T12:19:49.692Z,98515.25
2019-05-30T12:22:19.361Z,98518.31
2019-05-30T12:24:48.850Z,98518.45
2019-05-30T12:27:18.180Z,98515.81
2019-05-30T12:29:51.979Z,98517.95
2019-05-30T12:32:22.724Z,98516.02
2019-05-30T12:34:54.286Z,98517.16
2019-05-30T12:37:24.778Z,98510.34
2019-05-30T12:39:56.447Z,98511.10
2019-05-30T12:42:28.017Z,98511.48
2019-05-30T12:44:59.056Z,98508.47
2019-05-30T12:47:29.531Z,98508.72
2019-05-30T12:49:59.312Z,98511.86
2019-05-30T12:52:29.922Z,98517.24
2019-05-30T12:55:00.861Z,98518.51
2019-05-30T12:57:31.669Z,98513.16
2019-05-30T13:00:07.406Z,98505.95
2019-05-30T13:02:34.572Z,98503.34
2019-05-30T13:05:08.465Z,98498.21
2019-05-30T13:07:37.900Z,98496.03
2019-05-30T13:10:10.499Z,98503.94
2019-05-30T13:12:40.024Z,98504.11
2019-05-30T13:15:11.520Z,98499.91
2019-05-30T13:17:40.891Z,98491.05
2019-05-30T13:20:13.713Z,98494.73
2019-05-30T13:22:46.589Z,98493.43
2019-05-30T13:25:19.397Z,98498.97
2019-05-30T13:27:48.872Z,98495.92
2019-05-30T13:30:21.565Z,98489.28
2019-05-30T13:32:50.965Z,98498.73
2019-05-30T13:35:21.452Z,98492.13
2019-05-30T13:37:50.814Z,98490.31
2019-05-30T13:40:25.405Z,98490.30
2019-05-30T13:42:55.908Z,98487.72
2019-05-30T13:45:27.665Z,98485.48
2019-05-30T13:47:58.597Z,98479.70
2019-05-30T13:50:29.530Z,98479.70
2019-05-30T13:53:02.979Z,98484.09
2019-05-30T13:55:33.455Z,98478.27
2019-05-30T13:58:04.174Z,98475.46
2019-05-30T14:00:36.472Z,98478.43
2019-05-30T14:03:06.821Z,98475.09
2019-05-30T14:05:39.480Z,98472.92
2019-05-30T14:08:15.918Z,98481.17
2019-05-30T14:10:40.946Z,98478.96
2019-05-30T14:13:11.420Z,98473.91
2019-05-30T14:15:40.815Z,98475.36
2019-05-30T14:18:14.254Z,98475.50
2019-05-30T14:20:45.595Z,98473.05
2019-05-30T14:23:17.753Z,98471.22
2019-05-30T14:25:48.243Z,98472.41
2019-05-30T14:28:18.753Z,98469.40
2019-05-30T14:30:49.283Z,98468.42
2019-05-30T14:33:22.282Z,98471.50
2019-05-30T14:35:54.481Z,98469.10
2019-05-30T14:38:26.460Z,98468.33
2019-05-30T14:40:57.368Z,98467.14
2019-05-30T14:43:27.768Z,98471.03
2019-05-30T14:46:01.829Z,98474.73
2019-05-30T14:48:32.338Z,98477.18
2019-05-30T14:51:01.875Z,98475.00
2019-05-30T14:53:31.210Z,98478.47
2019-05-30T14:56:00.519Z,98477.64
2019-05-30T14:58:31.417Z,98474.82
2019-05-30T15:01:04.966Z,98474.31
2019-05-30T15:03:39.162Z,98469.75
2019-05-30T15:06:12.889Z,98471.66
2019-05-30T15:08:42.736Z,98469.27
2019-05-30T15:11:13.780Z,98467.28
2019-05-30T15:13:44.460Z,98466.91
2019-05-30T15:16:17.231Z,98466.88
2019-05-30T15:18:46.946Z,98468.69
2019-05-30T15:21:18.788Z,98460.38
2019-05-30T15:23:52.539Z,98465.22
2019-05-30T15:26:22.941Z,98468.47
2019-05-30T15:28:53.363Z,98460.42
2019-05-30T15:31:23.665Z,98463.70
2019-05-30T15:33:53.394Z,98455.32
2019-05-30T15:36:21.857Z,98452.17
2019-05-30T15:38:50.789Z,98452.94
2019-05-30T15:41:20.368Z,98447.77
2019-05-30T15:43:51.630Z,98454.25
2019-05-30T15:46:24.097Z,98459.12
2019-05-30T15:48:54.505Z,98455.61
2019-05-30T15:51:25.225Z,98452.59
2019-05-30T15:53:54.727Z,98455.01
2019-05-30T15:56:25.200Z,98453.60
2019-05-30T15:58:56.231Z,98447.59
2019-05-30T16:01:25.594Z,98446.67
2019-05-30T16:03:56.829Z,98449.33
2019-05-30T16:06:29.101Z,98455.02
2019-05-30T16:09:01.683Z,98457.20
2019-05-30T16:11:32.224Z,98455.81
2019-05-30T16:14:01.177Z,98457.41
2019-05-30T16:16:39.307Z,98452.80
2019-05-30T16:19:17.286Z,98454.80
2019-05-30T16:21:41.792Z,98452.39
2019-05-30T16:24:14.537Z,98441.35
2019-05-30T16:26:43.999Z,98444.56
2019-05-30T16:29:13.690Z,98448.95
2019-05-30T16:31:44.351Z,98447.11
2019-05-30T16:34:13.978Z,98446.70
2019-05-30T16:36:47.246Z,98437.68
2019-05-30T16:39:20.394Z,98443.28
2019-05-30T16:41:49.880Z,98441.45
2019-05-30T16:44:22.546Z,98422.73
2019-05-30T16:46:55.450Z,98422.73
2019-05-30T16:49:27.318Z,98439.22
2019-05-30T16:51:59.117Z,98446.58
2019-05-30T16:54:28.451Z,98435.76
2019-05-30T16:57:00.103Z,98438.95
2019-05-30T16:59:30.984Z,98439.54
2019-05-30T17:02:00.287Z,98429.30
2019-05-30T17:04:31.018Z,98429.30
2019-05-30T17:07:00.642Z,98438.12
2019-05-30T17:09:31.188Z,98427.27
2019-05-30T17:12:01.758Z,98437.92
2019-05-30T17:14:34.715Z,98446.70
2019-05-30T17:17:06.009Z,98436.11
2019-05-30T17:19:39.384Z,98439.08
2019-05-30T17:22:08.663Z,98444.84
2019-05-30T17:24:38.153Z,98445.20
2019-05-30T17:27:08.716Z,98435.95
2019-05-30T17:29:39.977Z,98445.34
2019-05-30T17:32:12.414Z,98450.33
2019-05-30T17:34:42.986Z,98454.91
2019-05-30T17:37:11.806Z,98452.71
2019-05-30T17:39:42.536Z,98451.47
2019-05-30T17:42:12.937Z,98458.05
2019-05-30T17:44:43.251Z,98461.03
2019-05-30T17:47:13.644Z,98462.36
2019-05-30T17:49:44.152Z,98458.92
2019-05-30T17:52:16.352Z,98464.51
2019-05-30T17:54:48.231Z,98460.84
2019-05-30T17:57:19.933Z,98460.41
2019-05-30T17:59:49.123Z,98462.12
2019-05-30T18:02:20.306Z,98463.77
2019-05-30T18:04:49.669Z,98466.08
2019-05-30T18:07:20.792Z,98465.59
2019-05-30T18:09:51.410Z,98469.95
2019-05-30T18:12:22.973Z,98460.69
2019-05-30T18:14:51.808Z,98469.05
2019-05-30T18:17:23.116Z,98462.31
2019-05-30T18:19:55.412Z,98466.01
2019-05-30T18:22:27.855Z,98469.70
2019-05-30T18:24:57.185Z,98472.58
2019-05-30T18:27:28.056Z,98468.27
2019-05-30T18:29:59.760Z,98471.33
2019-05-30T18:32:30.346Z,98469.03
2019-05-30T18:35:00.863Z,98478.49
2019-05-30T18:37:32.552Z,98474.59
2019-05-30T18:40:03.664Z,98468.53
2019-05-30T18:42:35.938Z,98472.62
2019-05-30T18:45:08.246Z,98481.06
2019-05-30T18:47:38.627Z,98475.76
2019-05-30T18:50:09.731Z,98479.18
2019-05-30T18:52:41.736Z,98476.08
2019-05-30T18:55:12.246Z,98477.52
2019-05-30T18:57:41.609Z,98479.36
2019-05-30T19:00:16.590Z,98483.63
2019-05-30T19:02:49.241Z,98489.09
2019-05-30T19:05:19.619Z,98486.56
2019-05-30T19:07:50.451Z,98490.78
2019-05-30T19:10:23.776Z,98488.62
2019-05-30T19:12:53.358Z,98487.09
2019-05-30T19:15:29.353Z,98494.79
2019-05-30T19:17:57.595Z,98501.87
2019-05-30T19:20:31.818Z,98505.61
2019-05-30T19:23:01.555Z,98508.47
2019-05-30T19:25:32.428Z,98517.21
2019-05-30T19:28:03.188Z,98520.95
2019-05-30T19:30:35.091Z,98525.94
2019-05-30T19:33:05.577Z,98528.80
2019-05-30T19:35:40.250Z,98525.27
2019-05-30T19:38:12.269Z,98530.13
2019-05-30T19:40:42.988Z,98531.08
2019-05-30T19:43:11.547Z,98533.35
2019-05-30T19:45:40.013Z,98534.44
2019-05-30T19:48:10.416Z,98534.61
2019-05-30T19:50:38.939Z,98536.14
2019-05-30T19:53:07.492Z,98543.84
2019-05-30T19:55:37.971Z,98544.36
2019-05-30T19:58:08.679Z,98551.53
2019-05-30T20:00:57.007Z,98553.87
2019-05-30T20:03:11.057Z,98557.34
2019-05-30T20:05:43.447Z,98554.83
2019-05-30T20:08:13.404Z,98557.42
2019-05-30T20:10:43.839Z,98561.30
2019-05-30T20:13:14.532Z,98565.03
2019-05-30T20:15:44.234Z,98565.17
2019-05-30T20:18:13.643Z,98560.71
2019-05-30T20:20:56.379Z,98563.63
2019-05-30T20:23:20.534Z,98569.43
2019-05-30T20:25:49.983Z,98569.63
2019-05-30T20:28:19.287Z,98574.44
2019-05-30T20:30:48.803Z,98577.59
2019-05-30T20:33:19.159Z,98580.75
2019-05-30T20:35:48.667Z,98580.51
2019-05-30T20:38:20.819Z,98582.06
2019-05-30T20:40:50.323Z,98586.50
2019-05-30T20:43:24.256Z,98583.87
2019-05-30T20:45:55.408Z,98584.17
2019-05-30T20:48:25.811Z,98588.16
2019-05-30T20:50:57.712Z,98587.50
2019-05-30T20:53:28.054Z,98594.70
2019-05-30T20:55:58.666Z,98586.59
2019-05-30T20:58:30.040Z,98595.23
2019-05-30T21:01:03.527Z,98599.01
2019-05-30T21:03:33.596Z,98599.78
2019-05-30T21:06:04.367Z,98598.58
2019-05-30T21:08:35.077Z,98599.90
2019-05-30T21:11:07.270Z,98603.66
2019-05-30T21:13:38.246Z,98603.70
2019-05-30T21:16:10.377Z,98614.20
2019-05-30T21:18:42.037Z,98612.17
2019-05-30T21:21:20.261Z,98606.63
2019-05-30T21:23:50.814Z,98596.20
2019-05-30T21:26:21.074Z,98604.86
2019-05-30T21:28:50.369Z,98599.98
2019-05-30T21:31:21.108Z,98597.23
2019-05-30T21:33:51.986Z,98599.78
2019-05-30T21:36:21.814Z,98607.10
2019-05-30T21:38:51.124Z,98601.91
2019-05-30T21:41:21.522Z,98608.00
2019-05-30T21:43:52.039Z,98607.88
2019-05-30T21:46:21.745Z,98606.86
2019-05-30T21:48:52.893Z,98603.59
2019-05-30T21:51:22.325Z,98611.94
2019-05-30T21:53:54.071Z,98611.98
2019-05-30T21:56:24.376Z,98614.19
2019-05-30T21:58:55.798Z,98612.80
2019-05-30T22:01:30.862Z,98609.56
2019-05-30T22:04:00.440Z,98608.54
2019-05-30T22:06:31.013Z,98603.19
2019-05-30T22:09:03.552Z,98609.93
2019-05-30T22:11:32.978Z,98609.77
2019-05-30T22:14:02.236Z,98607.26
2019-05-30T22:16:31.957Z,98609.31
2019-05-30T22:19:04.603Z,98609.77
2019-05-30T22:21:35.133Z,98604.56
2019-05-30T22:24:05.521Z,98609.07
2019-05-30T22:26:37.598Z,98612.01
2019-05-30T22:29:08.329Z,98611.43
2019-05-30T22:31:39.976Z,98609.07
2019-05-30T22:34:11.435Z,98609.07
2019-05-30T22:36:43.019Z,98613.48
2019-05-30T22:39:12.387Z,98610.22
2019-05-30T22:41:43.825Z,98610.66
2019-05-30T22:44:15.323Z,98608.09
2019-05-30T22:46:46.197Z,98611.61
2019-05-30T22:49:18.505Z,98606.08
2019-05-30T22:51:49.043Z,98608.65
2019-05-30T22:54:17.534Z,98603.87
2019-05-30T22:56:49.667Z,98597.52
2019-05-30T22:59:20.187Z,98600.72
2019-05-30T23:01:52.022Z,98599.56
2019-05-30T23:04:21.829Z,98593.10
2019-05-30T23:06:54.541Z,98594.73
2019-05-30T23:09:25.527Z,98600.72
2019-05-30T23:11:57.115Z,98596.33
2019-05-30T23:14:29.212Z,98596.91
2019-05-30T23:16:59.598Z,98595.61
2019-05-30T23:19:30.108Z,98590.48
2019-05-30T23:22:01.041Z,98595.84
2019-05-30T23:24:30.546Z,98596.05
2019-05-30T23:27:00.870Z,98597.36
2019-05-30T23:29:31.320Z,98599.56
2019-05-30T23:32:03.286Z,98595.61
2019-05-30T23:34:33.693Z,98592.82
2019-05-30T23:37:03.693Z,98593.27
2019-05-30T23:39:33.046Z,98593.06
2019-05-30T23:42:03.443Z,98591.87
2019-05-30T23:44:32.949Z,98591.67
2019-05-30T23:47:03.433Z,98591.42
2019-05-30T23:49:33.723Z,98584.84
2019-05-30T23:52:02.665Z,98590.86
2019-05-30T23:54:31.939Z,98589.08
2019-05-30T23:57:02.332Z,98592.20
2019-05-30T23:59:31.737Z,98586.88
